Time;durP1;ratioP1;P1;durP2;ratioP2;P2;SDS_P1;SDS_P2;PMS_P1;PMS_P2;Temp;Humidity;BMP_temperature;BMP_pressure;BME280_temperature;BME280_humidity;BME280_pressure;Samples;Min_cycle;Max_cycle;Signal;HPM_P1;HPM_P2
2021/08/22 00:00:48;;;;;;;;;5.75;5.50;;;;;21.01;53.44;101287.59;5082418;27;45508;-49
2021/08/22 00:03:13;;;;;;;;;5.50;5.50;;;;;21.05;53.36;101289.16;5082525;28;46054;-50
2021/08/22 00:05:38;;;;;;;;;8.00;6.00;;;;;21.05;53.69;101289.16;5082718;28;45251;-49
2021/08/22 00:08:04;;;;;;;;;5.75;5.75;;;;;21.05;53.29;101290.97;5082778;28;45232;-50
2021/08/22 00:10:29;;;;;;;;;7.50;7.25;;;;;21.07;53.53;101286.44;5082534;27;45507;-50
2021/08/22 00:12:55;;;;;;;;;7.75;5.00;;;;;21.08;53.67;101286.34;5082262;28;45453;-50
2021/08/22 00:15:20;;;;;;;;;5.75;5.00;;;;;21.08;53.19;101283.69;5082425;28;45246;-51
2021/08/22 00:17:45;;;;;;;;;4.50;4.50;;;;;21.09;53.68;101277.41;5082794;28;45516;-48
2021/08/22 00:20:11;;;;;;;;;7.00;6.00;;;;;21.10;53.38;101284.44;5082409;27;45220;-48
2021/08/22 00:22:37;;;;;;;;;5.50;5.00;;;;;21.08;53.81;101283.69;5082110;28;46205;-46
2021/08/22 00:25:04;;;;;;;;;7.00;7.00;;;;;21.10;53.87;101281.78;5082568;28;45263;-47
2021/08/22 00:27:30;;;;;;;;;5.00;5.00;;;;;21.11;53.66;101291.53;5080997;28;45202;-49
2021/08/22 00:29:55;;;;;;;;;5.50;5.50;;;;;21.08;53.65;101282.78;5082024;27;45456;-51
2021/08/22 00:32:20;;;;;;;;;5.25;5.25;;;;;21.07;53.58;101279.28;5081081;28;46023;-47
2021/08/22 00:34:46;;;;;;;;;6.00;5.00;;;;;21.06;53.75;101285.53;5082225;28;45362;-50
2021/08/22 00:37:12;;;;;;;;;6.75;5.75;;;;;21.09;53.34;101284.53;5082321;28;45253;-50
2021/08/22 00:39:37;;;;;;;;;7.00;6.25;;;;;21.09;53.79;101293.44;5082260;28;45524;-51
2021/08/22 00:42:03;;;;;;;;;4.75;4.75;;;;;21.07;53.59;101292.63;5081687;27;45347;-50
2021/08/22 00:44:28;;;;;;;;;6.00;5.75;;;;;21.09;53.80;101293.44;5082141;28;45281;-50
2021/08/22 00:46:55;;;;;;;;;9.50;6.00;;;;;21.09;53.60;101296.09;5082226;28;45446;-52
2021/08/22 00:49:22;;;;;;;;;6.00;6.00;;;;;21.06;53.43;101288.22;5082101;28;45403;-51
2021/08/22 00:51:47;;;;;;;;;7.00;5.75;;;;;21.07;53.68;101289.97;5081565;28;47196;-51
2021/08/22 00:54:13;;;;;;;;;8.00;5.75;;;;;21.05;53.47;101291.81;5081881;28;45192;-48
2021/08/22 00:56:39;;;;;;;;;5.50;5.50;;;;;21.01;53.73;101284.91;5080705;28;45985;-50
2021/08/22 00:59:10;;;;;;;;;10.25;8.00;;;;;21.01;53.74;101294.75;5081582;28;45453;-51
2021/08/22 01:01:37;;;;;;;;;8.25;8.25;;;;;20.99;54.01;101289.47;5081662;28;45356;-48
2021/08/22 01:04:06;;;;;;;;;8.00;7.00;;;;;20.96;53.71;101284.28;5081757;28;45270;-49
2021/08/22 01:06:50;;;;;;;;;5.50;5.50;;;;;20.94;53.63;101284.34;5081663;28;45375;-50
2021/08/22 01:09:40;;;;;;;;;7.75;6.25;;;;;20.89;53.53;101294.41;5081789;28;45497;-51
2021/08/22 01:12:14;;;;;;;;;4.00;4.00;;;;;20.89;54.22;101296.19;5081359;27;46319;-49
2021/08/22 01:14:45;;;;;;;;;8.00;6.00;;;;;20.82;54.36;101302.78;5081289;28;45366;-46
2021/08/22 01:17:12;;;;;;;;;4.00;4.00;;;;;20.78;53.96;101304.75;5081714;28;45290;-49
2021/08/22 01:20:02;;;;;;;;;6.50;6.50;;;;;20.75;54.38;101300.44;5081315;28;45409;-50
2021/08/22 01:22:30;;;;;;;;;7.50;6.00;;;;;20.73;54.50;101304.13;5080131;28;45925;-50
2021/08/22 01:24:56;;;;;;;;;7.25;7.25;;;;;20.68;54.08;101301.63;5081165;28;45327;-47
2021/08/22 01:27:24;;;;;;;;;8.50;7.00;;;;;20.65;54.53;101299.06;5081299;28;46557;-46
2021/08/22 01:30:02;;;;;;;;;11.75;9.25;;;;;20.61;54.31;101301.03;5081079;28;45505;-48
2021/08/22 01:32:44;;;;;;;;;10.25;8.00;;;;;20.56;54.97;101294.19;5080822;28;47034;-48
2021/08/22 01:35:13;;;;;;;;;7.25;7.25;;;;;20.53;54.86;101300.53;5081150;27;45314;-47
2021/08/22 01:37:41;;;;;;;;;6.00;6.00;;;;;20.51;54.46;101306.88;5079973;28;45247;-49
2021/08/22 01:40:09;;;;;;;;;7.50;7.00;;;;;20.49;54.60;101308.75;5081009;27;45477;-47
2021/08/22 01:42:35;;;;;;;;;7.50;7.00;;;;;20.45;54.58;101306.25;5080851;28;46230;-50
2021/08/22 01:45:06;;;;;;;;;13.00;6.75;;;;;20.44;54.96;101309.00;5080870;28;45243;-46
2021/08/22 01:47:34;;;;;;;;;4.00;4.00;;;;;20.43;55.17;101315.25;5081175;28;45322;-48
2021/08/22 01:50:00;;;;;;;;;7.00;7.00;;;;;20.39;55.14;101314.53;5080914;27;45314;-45
2021/08/22 01:52:26;;;;;;;;;8.00;7.25;;;;;20.37;54.76;101311.06;5080744;28;46547;-47
2021/08/22 01:54:51;;;;;;;;;9.50;8.00;;;;;20.35;54.96;101310.28;5080904;28;45421;-45
2021/08/22 01:57:17;;;;;;;;;7.00;7.00;;;;;20.34;55.31;101313.88;5081015;28;45313;-46
2021/08/22 01:59:42;;;;;;;;;7.75;7.50;;;;;20.36;55.04;101313.81;5080425;28;45501;-47
2021/08/22 02:02:10;;;;;;;;;8.75;8.50;;;;;20.30;55.46;101307.81;5080817;28;46291;-49
2021/08/22 02:04:49;;;;;;;;;6.75;6.25;;;;;20.34;55.60;101311.22;5081003;28;45572;-46
2021/08/22 02:07:18;;;;;;;;;10.50;7.50;;;;;20.34;55.61;101308.53;5080834;27;45332;-51
2021/08/22 02:10:04;;;;;;;;;10.50;10.50;;;;;20.33;55.55;101305.97;5080458;28;45507;-46
2021/08/22 02:12:30;;;;;;;;;6.75;5.75;;;;;20.28;55.79;101308.81;5080249;28;46254;-49
2021/08/22 02:15:04;;;;;;;;;7.00;7.00;;;;;20.30;55.79;101312.28;5080294;28;45397;-48
2021/08/22 02:17:42;;;;;;;;;8.25;7.25;;;;;20.29;55.19;101324.75;5079422;28;45346;-50
2021/08/22 02:20:08;;;;;;;;;8.00;8.00;;;;;20.28;55.62;101312.34;5080499;28;45368;-47
2021/08/22 02:22:35;;;;;;;;;10.00;7.00;;;;;20.26;55.64;101316.03;5079157;28;47692;-50
2021/08/22 02:25:02;;;;;;;;;10.75;9.25;;;;;20.27;55.24;101318.63;5080324;28;45351;-49
2021/08/22 02:27:29;;;;;;;;;10.75;8.00;;;;;20.24;55.88;101318.78;5080294;28;45334;-49
2021/08/22 02:29:55;;;;;;;;;8.00;7.75;;;;;20.27;55.64;101313.28;5080130;27;45436;-50
2021/08/22 02:32:23;;;;;;;;;7.00;7.00;;;;;20.27;55.41;101317.75;5080112;28;45405;-49
2021/08/22 02:34:48;;;;;;;;;7.25;6.50;;;;;20.25;55.64;101315.19;5080347;28;45306;-51
2021/08/22 02:37:13;;;;;;;;;6.75;5.75;;;;;20.28;55.40;101308.81;5080448;28;45275;-48
2021/08/22 02:39:39;;;;;;;;;4.75;3.00;;;;;20.28;55.38;101316.84;5080434;28;45371;-51
2021/08/22 02:42:05;;;;;;;;;8.75;7.50;;;;;20.30;55.87;101315.81;5079924;28;45906;-50
2021/08/22 02:44:31;;;;;;;;;5.50;4.25;;;;;20.30;55.29;101314.94;5080254;28;45235;-49
2021/08/22 02:46:57;;;;;;;;;8.25;7.25;;;;;20.29;55.64;101316.75;5080163;28;45434;-50
2021/08/22 02:49:22;;;;;;;;;5.75;5.75;;;;;20.28;55.40;101324.84;5080121;28;45489;-51
2021/08/22 02:51:48;;;;;;;;;7.50;6.25;;;;;20.29;55.30;101315.91;5079906;27;46309;-51
2021/08/22 02:54:13;;;;;;;;;5.00;5.00;;;;;20.29;55.01;101318.56;5078843;28;45341;-51
2021/08/22 02:56:38;;;;;;;;;6.75;5.50;;;;;20.27;55.82;101312.44;5081415;28;45227;-49
2021/08/22 02:59:04;;;;;;;;;6.50;5.00;;;;;20.28;55.28;101319.50;5083468;28;45278;-47
2021/08/22 03:01:29;;;;;;;;;8.50;6.50;;;;;20.27;55.17;101315.94;5083481;27;45938;-47
2021/08/22 03:03:55;;;;;;;;;5.00;5.00;;;;;20.23;54.79;101314.38;5083808;28;45249;-51
2021/08/22 03:06:20;;;;;;;;;5.75;4.25;;;;;20.20;54.27;101316.31;5083893;28;45478;-49
2021/08/22 03:08:45;;;;;;;;;4.50;4.25;;;;;20.17;54.17;101319.13;5083692;28;45218;-49
2021/08/22 03:11:11;;;;;;;;;5.50;5.50;;;;;20.10;54.05;101307.84;5083650;27;45374;-49
2021/08/22 03:13:36;;;;;;;;;6.00;5.00;;;;;20.10;53.89;101313.19;5083185;28;45381;-48
2021/08/22 03:16:02;;;;;;;;;4.00;4.00;;;;;20.08;53.99;101317.75;5083683;28;45244;-49
2021/08/22 03:18:27;;;;;;;;;7.75;6.00;;;;;20.05;53.94;101312.53;5083716;28;45297;-48
2021/08/22 03:20:53;;;;;;;;;5.00;5.00;;;;;20.04;54.26;101319.66;5083336;27;45448;-50
2021/08/22 03:23:18;;;;;;;;;4.50;4.50;;;;;20.03;54.28;101314.41;5065128;28;45398;-47
2021/08/22 03:25:43;;;;;;;;;7.25;7.00;;;;;20.01;53.84;101309.13;5083373;28;46008;-50
2021/08/22 03:28:09;;;;;;;;;3.25;3.25;;;;;20.00;54.18;101322.53;5083255;28;45520;-48
2021/08/22 03:30:34;;;;;;;;;6.75;6.75;;;;;20.00;54.02;101314.53;5083001;27;45317;-48
2021/08/22 03:32:59;;;;;;;;;9.50;7.00;;;;;19.98;54.08;101306.59;5083157;28;45448;-49
2021/08/22 03:35:25;;;;;;;;;6.00;5.00;;;;;19.95;54.26;101312.94;5083368;27;45295;-49
2021/08/22 03:37:50;;;;;;;;;5.00;4.00;;;;;19.96;53.99;101317.34;5083270;28;45307;-48
2021/08/22 03:40:17;;;;;;;;;5.00;4.00;;;;;19.96;53.69;101319.13;5082978;27;45284;-47
2021/08/22 03:42:42;;;;;;;;;7.75;6.00;;;;;19.95;53.66;101312.94;5082991;28;45249;-50
2021/08/22 03:45:08;;;;;;;;;5.00;5.00;;;;;19.91;53.62;101306.03;5082835;28;45230;-47
2021/08/22 03:47:33;;;;;;;;;5.00;4.00;;;;;19.92;53.79;101306.88;5081803;28;45263;-50
2021/08/22 03:49:58;;;;;;;;;5.25;5.00;;;;;19.90;53.74;101317.63;5082851;27;46000;-46
2021/08/22 03:52:24;;;;;;;;;6.25;6.00;;;;;19.88;53.56;101322.16;5082879;28;45240;-45
2021/08/22 03:54:49;;;;;;;;;6.00;4.50;;;;;19.86;53.32;101318.69;5081883;28;45332;-49
2021/08/22 03:57:14;;;;;;;;;5.25;5.00;;;;;19.79;53.62;101325.19;5082848;28;45161;-48
2021/08/22 03:59:40;;;;;;;;;7.00;5.25;;;;;19.80;53.81;101341.13;5082604;28;45184;-48
2021/08/22 04:02:06;;;;;;;;;8.25;5.00;;;;;19.75;53.39;101332.47;5081512;27;45259;-47
2021/08/22 04:04:32;;;;;;;;;5.50;4.75;;;;;19.70;53.30;101339.78;5082862;27;45307;-48
2021/08/22 04:06:58;;;;;;;;;10.00;8.00;;;;;19.68;53.50;101343.47;5080097;28;45303;-46
2021/08/22 04:09:24;;;;;;;;;8.25;5.00;;;;;19.63;53.14;101333.88;5081152;28;46723;-45
2021/08/22 04:11:54;;;;;;;;;5.50;5.00;;;;;19.61;53.56;101338.38;5082334;27;45442;-45
2021/08/22 04:14:20;;;;;;;;;5.75;5.00;;;;;19.60;53.41;101335.78;5082326;28;45505;-46
2021/08/22 04:16:45;;;;;;;;;9.50;7.00;;;;;19.55;53.63;101335.13;5082612;28;45244;-47
2021/08/22 04:19:10;;;;;;;;;6.25;5.00;;;;;19.56;53.87;101339.50;5082331;28;46440;-47
2021/08/22 04:21:36;;;;;;;;;7.50;6.00;;;;;19.54;53.48;101339.56;5082362;28;45352;-45
2021/08/22 04:24:03;;;;;;;;;5.75;5.25;;;;;19.51;53.48;101349.50;5082417;28;45246;-46
2021/08/22 04:26:28;;;;;;;;;10.25;8.25;;;;;19.47;53.59;101346.97;5082387;28;45440;-46
2021/08/22 04:28:53;;;;;;;;;7.75;6.00;;;;;19.46;53.33;101347.03;5081828;28;46256;-46
2021/08/22 04:31:19;;;;;;;;;6.25;6.25;;;;;19.44;53.51;101349.75;5081099;27;45326;-48
2021/08/22 04:33:44;;;;;;;;;7.75;7.00;;;;;19.41;53.42;101349.88;5081034;28;45383;-46
2021/08/22 04:36:10;;;;;;;;;6.25;4.75;;;;;19.42;53.45;101361.41;5082326;28;45506;-49
2021/08/22 04:38:36;;;;;;;;;6.00;6.00;;;;;19.41;53.57;101349.03;5081010;28;45585;-47
2021/08/22 04:41:01;;;;;;;;;7.25;4.75;;;;;19.35;53.42;101342.16;5082192;27;45437;-46
2021/08/22 04:43:27;;;;;;;;;5.75;4.75;;;;;19.35;53.54;101349.28;5081943;28;45242;-45
2021/08/22 04:45:52;;;;;;;;;6.00;5.00;;;;;19.30;53.79;101341.47;5080835;28;45211;-47
2021/08/22 04:48:18;;;;;;;;;6.25;5.25;;;;;19.30;53.60;101349.47;5082006;28;45245;-46
2021/08/22 04:50:43;;;;;;;;;5.25;5.00;;;;;19.27;53.64;101357.56;5081989;28;45569;-46
2021/08/22 04:53:09;;;;;;;;;7.50;6.00;;;;;19.20;53.63;101351.63;5082022;28;45145;-46
2021/08/22 04:55:34;;;;;;;;;6.75;5.50;;;;;19.21;53.59;101349.84;5081997;28;45523;-50
2021/08/22 04:57:59;;;;;;;;;6.75;5.50;;;;;19.20;53.49;101345.44;5081551;28;46133;-46
2021/08/22 05:00:25;;;;;;;;;6.00;5.25;;;;;19.18;53.19;101356.16;5081594;27;45450;-48
2021/08/22 05:02:50;;;;;;;;;7.25;6.75;;;;;19.15;53.76;101354.47;5082090;28;45376;-46
2021/08/22 05:05:16;;;;;;;;;3.75;3.50;;;;;19.13;53.35;101353.69;5081846;28;45284;-50
2021/08/22 05:07:41;;;;;;;;;7.00;5.50;;;;;19.13;53.33;101361.69;5080486;28;46583;-45
2021/08/22 05:10:07;;;;;;;;;5.50;5.25;;;;;19.10;53.42;101360.94;5081732;28;45471;-45
2021/08/22 05:12:32;;;;;;;;;5.75;5.00;;;;;19.12;53.48;101364.41;5081698;28;45341;-47
2021/08/22 05:14:58;;;;;;;;;5.25;3.75;;;;;19.10;53.44;101368.94;5080025;28;45240;-45
2021/08/22 05:17:23;;;;;;;;;8.25;5.50;;;;;19.11;53.47;101368.84;5081672;28;46287;-45
2021/08/22 05:19:48;;;;;;;;;6.25;5.75;;;;;19.08;53.29;101371.66;5081327;28;45286;-47
2021/08/22 05:22:14;;;;;;;;;6.75;6.00;;;;;19.06;53.61;101365.50;5081681;28;45426;-46
2021/08/22 05:24:39;;;;;;;;;5.25;5.25;;;;;19.06;53.20;101365.50;5081306;28;45337;-46
2021/08/22 05:27:04;;;;;;;;;6.00;5.75;;;;;19.05;53.14;101365.59;5081200;28;45312;-47
2021/08/22 05:29:30;;;;;;;;;5.00;4.00;;;;;19.00;53.28;101365.75;5081041;28;45303;-48
2021/08/22 05:31:56;;;;;;;;;1.50;1.50;;;;;19.03;53.24;101368.31;5081392;28;45439;-49
2021/08/22 05:34:21;;;;;;;;;7.25;6.00;;;;;19.00;53.11;101363.97;5081182;28;45590;-49
2021/08/22 05:36:46;;;;;;;;;3.50;2.25;;;;;18.98;53.48;101363.16;5079922;28;47173;-47
2021/08/22 05:39:12;;;;;;;;;5.25;5.00;;;;;18.93;53.68;101364.25;5081089;28;45217;-50
2021/08/22 05:41:37;;;;;;;;;6.25;5.00;;;;;18.94;53.35;101368.66;5080078;28;45818;-48
2021/08/22 05:44:03;;;;;;;;;7.75;6.00;;;;;18.89;53.51;101363.47;5080744;28;45238;-46
2021/08/22 05:46:28;;;;;;;;;5.00;3.50;;;;;18.93;53.63;101380.22;5081021;28;45355;-49
2021/08/22 05:48:54;;;;;;;;;6.00;4.50;;;;;18.93;53.29;101372.25;5080900;28;45478;-47
2021/08/22 05:51:20;;;;;;;;;8.50;4.50;;;;;18.93;53.31;101386.44;5081127;27;45212;-47
2021/08/22 05:53:47;;;;;;;;;3.50;3.00;;;;;18.91;53.36;101384.78;5080776;28;45387;-46
2021/08/22 05:56:13;;;;;;;;;6.00;5.00;;;;;18.92;53.56;101383.84;5079516;28;45367;-48
2021/08/22 05:58:38;;;;;;;;;5.00;5.00;;;;;18.92;53.17;101387.38;5080368;28;45390;-49
2021/08/22 06:01:05;;;;;;;;;5.00;4.00;;;;;18.91;53.25;101385.63;5081049;27;45307;-47
2021/08/22 06:03:31;;;;;;;;;7.25;7.25;;;;;18.91;53.32;101387.44;5080668;28;45339;-46
2021/08/22 06:05:56;;;;;;;;;3.50;3.50;;;;;18.87;53.31;101383.09;5080707;28;45407;-49
2021/08/22 06:08:22;;;;;;;;;7.00;6.00;;;;;18.90;53.76;101388.31;5080552;28;45233;-47
2021/08/22 06:10:47;;;;;;;;;4.75;4.75;;;;;18.88;53.53;101392.81;5081013;27;45299;-50
2021/08/22 06:13:13;;;;;;;;;9.75;8.00;;;;;18.87;53.58;101397.31;5080358;28;45307;-46
2021/08/22 06:15:39;;;;;;;;;4.25;4.25;;;;;18.89;53.73;101405.22;5079077;28;46946;-49
2021/08/22 06:18:04;;;;;;;;;5.00;4.00;;;;;18.87;53.44;101399.97;5080553;28;45266;-48
2021/08/22 06:20:30;;;;;;;;;7.25;4.00;;;;;18.87;53.48;101399.97;5080676;27;45228;-49
2021/08/22 06:22:55;;;;;;;;;7.00;6.75;;;;;18.90;53.39;101393.66;5080295;28;45527;-45
2021/08/22 06:25:21;;;;;;;;;6.25;5.00;;;;;18.90;54.04;101401.63;5080608;28;45330;-46
2021/08/22 06:27:46;;;;;;;;;8.00;6.50;;;;;18.89;53.54;101405.22;5080145;28;45431;-47
2021/08/22 06:30:12;;;;;;;;;6.00;6.00;;;;;18.90;53.82;101412.28;5079467;28;45332;-49
2021/08/22 06:32:37;;;;;;;;;4.50;4.00;;;;;18.87;53.65;101415.94;5080102;28;45434;-46
2021/08/22 06:35:03;;;;;;;;;5.00;4.50;;;;;18.89;53.74;101416.72;5080337;27;45445;-50
2021/08/22 06:37:28;;;;;;;;;6.25;5.25;;;;;18.89;53.74;101411.41;5080187;28;45512;-48
2021/08/22 06:39:54;;;;;;;;;4.00;2.00;;;;;18.89;53.91;101413.22;5080417;28;45371;-48
2021/08/22 06:42:19;;;;;;;;;5.75;4.25;;;;;18.86;53.74;101410.69;5080089;28;45320;-45
2021/08/22 06:44:45;;;;;;;;;6.00;6.00;;;;;18.89;53.58;101415.88;5079961;28;45407;-50
2021/08/22 06:47:10;;;;;;;;;6.00;4.00;;;;;18.90;53.66;101421.16;5080204;28;45445;-46
2021/08/22 06:49:36;;;;;;;;;3.25;3.25;;;;;18.90;53.84;101422.94;5080375;28;45428;-49
2021/08/22 06:52:02;;;;;;;;;4.75;4.75;;;;;18.88;53.96;101428.34;5079864;28;45292;-46
2021/08/22 06:54:27;;;;;;;;;5.50;5.50;;;;;18.88;54.04;101423.00;5078795;28;46907;-46
2021/08/22 06:56:55;;;;;;;;;8.00;5.00;;;;;18.87;53.70;101423.94;5079880;28;45462;-46
2021/08/22 06:59:24;;;;;;;;;6.00;6.00;;;;;18.88;54.00;101433.66;5080155;28;45441;-45
2021/08/22 07:01:50;;;;;;;;;5.75;5.75;;;;;18.84;53.40;101427.56;5079772;28;45261;-48
2021/08/22 07:04:15;;;;;;;;;5.00;5.00;;;;;18.82;53.73;101434.75;5079920;28;46292;-47
2021/08/22 07:06:41;;;;;;;;;6.75;3.50;;;;;18.83;53.79;101433.81;5079913;28;45250;-49
2021/08/22 07:09:06;;;;;;;;;5.00;3.00;;;;;18.83;54.16;101436.47;5080090;28;45227;-46
2021/08/22 07:11:32;;;;;;;;;4.75;4.75;;;;;18.84;54.01;101438.22;5078520;28;45500;-50
2021/08/22 07:13:58;;;;;;;;;5.00;3.75;;;;;18.84;54.32;101438.22;5078132;28;47124;-48
2021/08/22 07:16:25;;;;;;;;;4.25;4.25;;;;;18.87;54.22;101450.56;5079690;28;45236;-46
2021/08/22 07:18:51;;;;;;;;;4.75;4.75;;;;;18.87;53.85;101444.34;5080051;28;45209;-50
2021/08/22 07:21:16;;;;;;;;;4.50;4.50;;;;;18.91;54.08;101438.03;5079492;28;45390;-47
2021/08/22 07:23:43;;;;;;;;;6.00;5.00;;;;;18.93;53.92;101436.16;5079630;28;46282;-47
2021/08/22 07:26:08;;;;;;;;;7.75;6.75;;;;;18.97;54.04;101451.97;5079607;28;45505;-47
2021/08/22 07:28:34;;;;;;;;;5.50;3.75;;;;;18.97;54.23;101443.97;5079369;28;45308;-45
2021/08/22 07:31:04;;;;;;;;;5.75;5.25;;;;;19.03;53.79;101450.88;5079532;28;45610;-45
2021/08/22 07:33:30;;;;;;;;;4.25;3.25;;;;;19.07;54.13;101446.28;5079476;28;46137;-48
2021/08/22 07:35:55;;;;;;;;;5.00;4.00;;;;;19.11;54.12;101447.91;5079462;27;45308;-48
2021/08/22 07:38:20;;;;;;;;;8.00;6.75;;;;;19.15;53.84;101461.03;5079572;28;45706;-49
2021/08/22 07:40:46;;;;;;;;;4.25;4.00;;;;;19.15;54.13;101449.53;5079408;28;45322;-47
2021/08/22 07:43:11;;;;;;;;;7.50;5.00;;;;;19.22;53.63;101452.81;5082337;28;45926;-48
2021/08/22 07:45:36;;;;;;;;;4.25;4.25;;;;;19.25;54.02;101458.88;5082868;28;45456;-47
2021/08/22 07:48:02;;;;;;;;;7.25;6.00;;;;;19.30;54.01;101458.72;5081887;28;45370;-47
2021/08/22 07:50:27;;;;;;;;;5.75;3.75;;;;;19.36;54.20;101463.81;5082710;27;45456;-48
2021/08/22 07:52:53;;;;;;;;;4.00;3.00;;;;;19.41;53.57;101466.28;5082632;28;45311;-47
2021/08/22 07:55:18;;;;;;;;;4.50;3.50;;;;;19.47;53.62;101455.34;5082746;28;45295;-49
2021/08/22 07:57:43;;;;;;;;;4.00;3.00;;;;;19.53;54.08;101462.25;5082892;28;45375;-46
2021/08/22 08:00:09;;;;;;;;;4.00;4.00;;;;;19.59;53.88;101465.53;5082376;27;45410;-45
2021/08/22 08:02:35;;;;;;;;;3.50;2.75;;;;;19.68;53.80;101474.94;5082902;28;45281;-50
2021/08/22 08:05:00;;;;;;;;;4.50;4.50;;;;;19.73;53.30;101472.09;5082566;27;46552;-48
2021/08/22 08:07:25;;;;;;;;;4.00;3.00;;;;;19.79;53.19;101478.03;5082883;28;45229;-46
2021/08/22 08:09:51;;;;;;;;;7.25;3.00;;;;;19.84;53.28;101475.22;5082428;27;45328;-46
2021/08/22 08:12:16;;;;;;;;;3.75;3.00;;;;;19.90;53.64;101469.63;5082332;28;46572;-47
2021/08/22 08:14:41;;;;;;;;;2.00;2.00;;;;;19.96;53.33;101479.16;5082353;28;45251;-46
2021/08/22 08:17:08;;;;;;;;;3.00;3.00;;;;;20.03;53.30;101453.97;5082637;28;45394;-47
2021/08/22 08:19:34;;;;;;;;;5.25;2.75;;;;;20.08;53.34;101462.66;5082511;28;45218;-46
2021/08/22 08:21:59;;;;;;;;;3.00;2.00;;;;;20.14;52.68;101481.06;5082131;27;46462;-46
2021/08/22 08:24:24;;;;;;;;;2.00;2.00;;;;;20.21;53.05;101483.47;5082062;28;45169;-45
2021/08/22 08:26:50;;;;;;;;;3.00;3.00;;;;;20.25;52.45;101477.06;5082385;28;45373;-49
2021/08/22 08:29:15;;;;;;;;;2.00;2.00;;;;;20.30;53.05;101477.72;5081948;28;45386;-47
2021/08/22 08:31:40;;;;;;;;;3.75;2.00;;;;;20.33;52.53;101484.75;5081899;27;46042;-48
2021/08/22 08:34:06;;;;;;;;;5.00;2.25;;;;;20.38;52.45;101480.09;5082080;28;45188;-48
2021/08/22 08:36:31;;;;;;;;;4.00;3.50;;;;;20.42;52.06;101487.88;5082137;28;45342;-49
2021/08/22 08:38:57;;;;;;;;;3.25;3.25;;;;;20.49;52.60;101483.16;5081857;28;45359;-49
2021/08/22 08:41:22;;;;;;;;;3.50;1.00;;;;;20.49;52.60;101476.94;5082163;27;46196;-47
2021/08/22 08:43:48;;;;;;;;;2.25;2.25;;;;;20.56;52.50;101481.06;5081613;28;45304;-47
2021/08/22 08:46:32;;;;;;;;;3.00;1.25;;;;;20.60;52.55;101483.53;5082289;28;45253;-46
2021/08/22 08:49:16;;;;;;;;;2.00;2.00;;;;;20.70;51.80;101485.78;5081845;28;45327;-48
2021/08/22 08:52:03;;;;;;;;;6.00;3.00;;;;;20.74;51.84;101490.97;5081603;27;45355;-49
2021/08/22 08:54:28;;;;;;;;;2.00;2.00;;;;;20.82;52.15;101493.28;5081263;27;45264;-49
2021/08/22 08:56:55;;;;;;;;;2.00;1.00;;;;;20.87;52.00;101491.25;5081702;28;45232;-48
2021/08/22 08:59:20;;;;;;;;;3.00;3.00;;;;;20.89;52.14;101489.41;5080602;28;45282;-49
2021/08/22 09:01:46;;;;;;;;;5.00;3.00;;;;;20.97;51.44;101493.50;5081534;27;45283;-50
2021/08/22 09:04:18;;;;;;;;;5.00;2.50;;;;;21.04;51.56;101494.97;5082004;28;45273;-49
2021/08/22 09:06:49;;;;;;;;;5.75;3.50;;;;;21.10;51.82;101498.19;5080513;28;45373;-51
2021/08/22 09:09:46;;;;;;;;;2.50;2.50;;;;;21.17;51.77;101490.78;5081811;28;45299;-46
2021/08/22 09:12:39;;;;;;;;;3.25;2.50;;;;;21.25;51.35;101501.09;5081401;28;45479;-46
2021/08/22 09:15:16;;;;;;;;;2.00;1.50;;;;;21.34;51.63;101497.13;5081365;28;45398;-47
2021/08/22 09:18:00;;;;;;;;;2.50;2.00;;;;;21.38;51.19;101504.94;5080288;28;45393;-50
2021/08/22 09:20:29;;;;;;;;;2.00;2.00;;;;;21.45;51.10;101494.81;5081381;27;45396;-49
2021/08/22 09:23:32;;;;;;;;;2.50;2.50;;;;;21.55;50.35;101500.59;5081035;28;46301;-45
2021/08/22 09:26:35;;;;;;;;;2.00;2.00;;;;;21.59;50.25;101497.69;5081232;28;45300;-48
2021/08/22 09:29:38;;;;;;;;;2.75;2.75;;;;;21.67;50.34;101497.34;5081057;28;45311;-49
2021/08/22 09:32:32;;;;;;;;;2.50;1.50;;;;;21.70;50.35;101493.66;5081159;28;45299;-48
2021/08/22 09:35:25;;;;;;;;;3.00;3.00;;;;;21.75;50.54;101499.66;5042443;28;46210;-45
2021/08/22 09:38:22;;;;;;;;;2.75;2.00;;;;;21.83;50.02;101494.78;5081587;27;45332;-48
2021/08/22 09:40:59;;;;;;;;;2.75;2.75;;;;;21.92;50.36;101493.44;5081011;27;45229;-50
2021/08/22 09:44:01;;;;;;;;;3.00;3.00;;;;;22.00;50.38;101504.66;5080754;28;45442;-50
2021/08/22 09:46:45;;;;;;;;;4.50;2.00;;;;;22.05;49.97;101499.91;5081014;28;46275;-49
2021/08/22 09:49:29;;;;;;;;;5.00;2.00;;;;;22.11;49.84;101513.94;5081118;27;45387;-49
2021/08/22 09:52:35;;;;;;;;;2.00;2.00;;;;;22.12;49.81;101494.25;5080993;27;45483;-51
2021/08/22 09:55:31;;;;;;;;;3.75;2.50;;;;;22.19;49.61;101504.56;5079494;28;45539;-46
2021/08/22 09:58:35;;;;;;;;;4.00;3.00;;;;;22.22;49.78;101506.22;5079535;28;47394;-51
2021/08/22 10:01:30;;;;;;;;;1.25;1.25;;;;;22.23;49.59;101505.28;5080826;27;45317;-51
2021/08/22 10:04:14;;;;;;;;;3.25;3.00;;;;;22.22;50.01;101500.88;5080936;28;45302;-50
2021/08/22 10:06:58;;;;;;;;;2.25;2.25;;;;;22.21;49.59;101508.03;5078501;28;45549;-48
2021/08/22 10:09:24;;;;;;;;;3.50;2.00;;;;;22.20;49.17;101513.44;5080552;28;45587;-47
2021/08/22 10:11:57;;;;;;;;;3.00;1.50;;;;;22.16;49.44;101527.94;5080520;27;45349;-49
2021/08/22 10:14:26;;;;;;;;;1.00;1.00;;;;;22.16;49.21;101522.59;5080414;28;45342;-49
2021/08/22 10:16:52;;;;;;;;;1.00;1.00;;;;;22.13;49.49;101512.06;5080692;28;45408;-49
2021/08/22 10:19:29;;;;;;;;;1.00;1.00;;;;;22.08;49.19;101510.44;5080489;28;45347;-48
2021/08/22 10:22:16;;;;;;;;;0.25;0.25;;;;;22.02;49.18;101516.13;5080461;27;45231;-49
2021/08/22 10:24:44;;;;;;;;;0.00;0.00;;;;;22.02;48.95;101513.44;5080507;28;45488;-50
2021/08/22 10:27:11;;;;;;;;;0.00;0.00;;;;;21.94;49.01;101510.31;5080338;28;45503;-51
2021/08/22 10:29:49;;;;;;;;;0.50;0.50;;;;;21.95;48.83;101509.34;5080289;28;45303;-50
2021/08/22 10:32:15;;;;;;;;;0.75;0.75;;;;;21.95;48.95;101519.19;5080268;28;45292;-50
2021/08/22 10:34:44;;;;;;;;;1.50;0.50;;;;;21.89;48.97;101502.50;5080440;28;45321;-46
2021/08/22 10:37:30;;;;;;;;;1.75;1.75;;;;;21.91;49.11;101513.09;5080335;28;45338;-46
2021/08/22 10:39:57;;;;;;;;;0.00;0.00;;;;;21.90;48.73;101514.94;5080178;28;45450;-48
2021/08/22 10:42:24;;;;;;;;;1.00;1.00;;;;;21.86;49.21;101509.81;5079976;28;45188;-50
2021/08/22 10:44:50;;;;;;;;;0.50;0.50;;;;;21.85;48.75;101508.09;5080204;28;45418;-51
2021/08/22 10:47:21;;;;;;;;;0.00;0.00;;;;;21.88;48.73;101513.28;5080156;28;45506;-51
2021/08/22 10:49:52;;;;;;;;;2.00;2.00;;;;;21.91;48.92;101505.97;5080120;28;45652;-47
2021/08/22 10:52:22;;;;;;;;;1.50;1.00;;;;;21.96;48.91;101516.44;5080204;28;45413;-50
2021/08/22 10:55:05;;;;;;;;;1.00;1.00;;;;;22.03;49.40;101515.19;5080112;28;45278;-49
2021/08/22 10:57:43;;;;;;;;;0.75;0.50;;;;;22.10;48.70;101521.09;5080063;28;45253;-48
2021/08/22 11:00:26;;;;;;;;;1.00;1.00;;;;;22.23;49.08;101514.16;5073068;27;46255;-49
2021/08/22 11:02:55;;;;;;;;;0.50;0.50;;;;;22.44;49.11;101510.50;5071522;28;45256;-45
2021/08/22 11:05:27;;;;;;;;;1.00;1.00;;;;;22.66;49.22;101512.91;5080337;27;45447;-47
2021/08/22 11:07:55;;;;;;;;;1.00;1.00;;;;;22.86;49.07;101512.69;5080078;27;45210;-49
2021/08/22 11:10:22;;;;;;;;;1.00;1.00;;;;;23.14;48.96;101502.31;5079566;28;45989;-47
2021/08/22 11:12:52;;;;;;;;;1.00;1.00;;;;;23.41;49.10;101516.03;5079402;27;45326;-46
2021/08/22 11:15:28;;;;;;;;;1.00;1.00;;;;;23.72;48.98;101508.03;5079532;27;45406;-49
2021/08/22 11:18:01;;;;;;;;;1.00;1.00;;;;;23.98;49.20;101507.41;5073061;27;45464;-49
2021/08/22 11:20:29;;;;;;;;;1.00;1.00;;;;;24.18;48.77;101495.47;5083188;28;46072;-45
2021/08/22 11:23:21;;;;;;;;;3.00;2.00;;;;;24.42;48.65;101492.28;5082694;27;45369;-46
2021/08/22 11:25:51;;;;;;;;;2.00;2.00;;;;;24.51;48.41;101498.91;5080423;27;45551;-46
2021/08/22 11:28:18;;;;;;;;;1.00;1.00;;;;;24.59;48.15;101493.06;5082742;28;45503;-45
2021/08/22 11:30:45;;;;;;;;;1.00;1.00;;;;;24.61;48.05;101504.59;5082574;27;46339;-46
2021/08/22 11:33:12;;;;;;;;;1.00;1.00;;;;;24.67;47.69;101506.94;5078493;28;45550;-45